TimeCST,TemperatureF,Dew PointF,Humidity,Sea Level PressureIn,VisibilityMPH,Wind Direction,Wind SpeedMPH,Gust SpeedMPH,PrecipitationIn,Events,Conditions,WindDirDegrees,DateUTC
12:15 AM,12.2,8.6,85,29.28,1.0,SSW,16.1,27.6,N/A,,Overcast,200,2014-01-16 06:15:00
12:35 AM,14.0,6.8,73,29.27,2.0,SSW,19.6,26.5,N/A,,Overcast,210,2014-01-16 06:35:00
12:55 AM,14.0,6.8,73,29.26,2.0,SSW,17.3,24.2,N/A,,Overcast,200,2014-01-16 06:55:00
1:15 AM,14.0,8.6,79,29.26,2.0,SSW,12.7,20.7,N/A,,Overcast,210,2014-01-16 07:15:00
1:35 AM,15.8,8.6,73,29.26,2.5,SSW,9.2,17.3,N/A,,Overcast,200,2014-01-16 07:35:00
1:55 AM,15.8,8.6,73,29.25,4.0,SSW,12.7,20.7,N/A,,Overcast,200,2014-01-16 07:55:00
2:15 AM,15.8,8.6,73,29.25,3.0,SSW,9.2,18.4,N/A,,Overcast,200,2014-01-16 08:15:00
2:35 AM,15.8,10.4,79,29.25,3.0,South,12.7,24.2,N/A,,Overcast,190,2014-01-16 08:35:00
2:55 AM,17.6,10.4,73,29.25,3.0,SSW,9.2,16.1,N/A,,Overcast,210,2014-01-16 08:55:00
3:15 AM,17.6,10.4,73,29.24,2.5,SSW,11.5,24.2,N/A,,Overcast,210,2014-01-16 09:15:00
3:35 AM,17.6,10.4,73,29.24,5.0,SSW,11.5,16.1,N/A,,Overcast,210,2014-01-16 09:35:00
3:55 AM,17.6,12.2,79,29.24,3.0,SSW,9.2,-,N/A,,Overcast,210,2014-01-16 09:55:00
4:15 AM,17.6,12.2,79,29.23,6.0,SSW,6.9,-,N/A,,Overcast,200,2014-01-16 10:15:00
4:35 AM,17.6,12.2,79,29.23,10.0,SSW,10.4,-,N/A,,Overcast,200,2014-01-16 10:35:00
4:55 AM,19.4,12.2,74,29.22,10.0,SSW,9.2,-,N/A,,Overcast,210,2014-01-16 10:55:00
5:15 AM,19.4,12.2,74,29.22,10.0,SSW,12.7,-,N/A,,Overcast,210,2014-01-16 11:15:00
5:35 AM,19.4,12.2,74,29.22,10.0,SSW,10.4,-,N/A,,Overcast,210,2014-01-16 11:35:00
5:55 AM,19.4,14.0,80,29.22,10.0,SSW,10.4,-,N/A,,Overcast,210,2014-01-16 11:55:00
6:15 AM,21.2,15.8,80,29.22,10.0,SSW,9.2,16.1,N/A,,Overcast,210,2014-01-16 12:15:00
6:35 AM,21.2,15.8,80,29.22,9.0,SSW,9.2,16.1,N/A,,Overcast,210,2014-01-16 12:35:00
6:55 AM,21.2,15.8,80,29.22,4.0,SSW,9.2,-,N/A,,Overcast,210,2014-01-16 12:55:00
7:15 AM,21.2,17.6,86,29.22,2.0,SSW,8.1,-,N/A,,Overcast,200,2014-01-16 13:15:00
7:35 AM,21.2,15.8,80,29.22,1.5,SSW,5.8,-,N/A,,Overcast,200,2014-01-16 13:35:00
7:55 AM,21.2,17.6,86,29.22,3.0,SSW,6.9,-,N/A,,Overcast,210,2014-01-16 13:55:00
8:15 AM,23.0,17.6,80,29.23,2.0,SSW,6.9,-,N/A,,Overcast,210,2014-01-16 14:15:00
8:35 AM,23.0,17.6,80,29.24,1.5,SW,8.1,-,N/A,,Overcast,220,2014-01-16 14:35:00
8:55 AM,23.0,19.4,86,29.24,1.0,SW,9.2,-,N/A,,Overcast,220,2014-01-16 14:55:00
9:15 AM,23.0,19.4,86,29.25,1.2,SW,6.9,-,N/A,,Overcast,220,2014-01-16 15:15:00
9:35 AM,24.8,19.4,80,29.25,6.0,SW,8.1,-,N/A,,Overcast,220,2014-01-16 15:35:00
9:55 AM,24.8,21.2,86,29.26,10.0,SW,9.2,-,N/A,,Overcast,230,2014-01-16 15:55:00
10:15 AM,24.8,21.2,86,29.27,9.0,WSW,8.1,-,N/A,,Overcast,240,2014-01-16 16:15:00
10:35 AM,26.6,21.2,80,29.28,2.5,West,9.2,-,N/A,,Overcast,260,2014-01-16 16:35:00
10:55 AM,26.6,21.2,80,29.28,2.0,WNW,8.1,-,N/A,,Overcast,290,2014-01-16 16:55:00
11:15 AM,26.6,24.8,93,29.29,3.0,NW,15.0,-,N/A,,Overcast,310,2014-01-16 17:15:00
11:35 AM,24.8,19.4,80,29.30,1.0,WNW,21.9,26.5,N/A,,Overcast,300,2014-01-16 17:35:00
11:55 AM,23.0,17.6,80,29.32,2.0,NW,18.4,24.2,N/A,,Overcast,310,2014-01-16 17:55:00
12:15 PM,21.2,17.6,86,29.33,3.0,WNW,18.4,27.6,N/A,,Overcast,300,2014-01-16 18:15:00
12:35 PM,19.4,15.8,86,29.35,1.8,WNW,16.1,24.2,N/A,,Overcast,300,2014-01-16 18:35:00
12:55 PM,17.6,14.0,86,29.36,1.5,WNW,18.4,-,N/A,,Overcast,300,2014-01-16 18:55:00
1:15 PM,17.6,12.2,79,29.37,1.2,WNW,18.4,23.0,N/A,,Overcast,300,2014-01-16 19:15:00
1:35 PM,15.8,10.4,79,29.39,1.2,WNW,12.7,23.0,N/A,,Overcast,300,2014-01-16 19:35:00
1:55 PM,15.8,8.6,73,29.40,1.8,WNW,13.8,21.9,N/A,,Overcast,290,2014-01-16 19:55:00
2:15 PM,15.8,8.6,73,29.41,1.8,West,16.1,19.6,N/A,,Overcast,280,2014-01-16 20:15:00
2:35 PM,14.0,8.6,79,29.42,3.0,WNW,11.5,-,N/A,,Overcast,300,2014-01-16 20:35:00
2:55 PM,14.0,6.8,73,29.44,3.0,WNW,13.8,19.6,N/A,,Overcast,290,2014-01-16 20:55:00
3:15 PM,12.2,6.8,79,29.46,3.0,WNW,13.8,19.6,N/A,,Overcast,290,2014-01-16 21:15:00
3:35 PM,12.2,6.8,79,29.48,3.0,West,12.7,-,N/A,,Overcast,280,2014-01-16 21:35:00
3:55 PM,12.2,6.8,79,29.48,3.0,West,16.1,-,N/A,,Overcast,270,2014-01-16 21:55:00
4:15 PM,10.4,5.0,79,29.49,4.0,West,13.8,-,N/A,,Overcast,280,2014-01-16 22:15:00
4:35 PM,10.4,3.2,73,29.50,5.0,West,11.5,-,N/A,,Overcast,280,2014-01-16 22:35:00
4:55 PM,10.4,3.2,73,29.51,5.0,West,15.0,-,N/A,,Overcast,280,2014-01-16 22:55:00
5:15 PM,10.4,5.0,79,29.52,5.0,West,11.5,-,N/A,,Overcast,280,2014-01-16 23:15:00
5:35 PM,10.4,3.2,73,29.53,6.0,West,13.8,-,N/A,,Overcast,270,2014-01-16 23:35:00
5:55 PM,10.4,3.2,73,29.54,7.0,West,12.7,-,N/A,,Overcast,270,2014-01-16 23:55:00
6:15 PM,10.4,5.0,79,29.55,6.0,West,12.7,-,N/A,,Overcast,260,2014-01-17 00:15:00
6:35 PM,10.4,5.0,79,29.55,5.0,West,12.7,-,N/A,,Overcast,270,2014-01-17 00:35:00
6:55 PM,10.4,5.0,79,29.56,4.0,West,12.7,-,N/A,,Overcast,260,2014-01-17 00:55:00
7:15 PM,10.4,5.0,79,29.56,3.0,West,10.4,-,N/A,,Overcast,260,2014-01-17 01:15:00
7:35 PM,10.4,5.0,79,29.57,4.0,West,9.2,-,N/A,,Overcast,260,2014-01-17 01:35:00
7:55 PM,10.4,6.8,85,29.57,2.0,West,10.4,-,N/A,,Overcast,260,2014-01-17 01:55:00
8:15 PM,10.4,5.0,79,29.57,3.0,WSW,8.1,-,N/A,,Overcast,250,2014-01-17 02:15:00
8:35 PM,10.4,3.2,73,29.57,2.5,WSW,9.2,-,N/A,,Overcast,250,2014-01-17 02:35:00
8:55 PM,10.4,6.8,85,29.58,2.5,WSW,9.2,-,N/A,,Overcast,250,2014-01-17 02:55:00
9:15 PM,10.4,6.8,85,29.59,2.0,West,10.4,-,N/A,,Overcast,260,2014-01-17 03:15:00
9:35 PM,10.4,6.8,85,29.59,1.5,WSW,8.1,-,N/A,,Overcast,250,2014-01-17 03:35:00
9:55 PM,10.4,6.8,85,29.60,2.5,WSW,10.4,-,N/A,,Overcast,250,2014-01-17 03:55:00
10:15 PM,12.2,6.8,79,29.60,3.0,WSW,6.9,-,N/A,,Overcast,250,2014-01-17 04:15:00
10:35 PM,12.2,6.8,79,29.61,4.0,WSW,3.5,-,N/A,,Overcast,240,2014-01-17 04:35:00
10:55 PM,12.2,8.6,85,29.62,4.0,WSW,3.5,-,N/A,,Overcast,250,2014-01-17 04:55:00
11:15 PM,17.6,15.8,93,29.63,3.0,North,11.5,17.3,N/A,,Overcast,360,2014-01-17 05:15:00
11:35 PM,19.4,17.6,93,29.63,3.0,North,12.7,18.4,N/A,,Overcast,360,2014-01-17 05:35:00
11:55 PM,19.4,17.6,93,29.63,1.8,North,12.7,20.7,N/A,,Overcast,360,2014-01-17 05:55:00